Time;durP1;ratioP1;P1;durP2;ratioP2;P2;SDS_P1;SDS_P2;PMS_P1;PMS_P2;Temp;Humidity;BMP_temperature;BMP_pressure;BME280_temperature;BME280_humidity;BME280_pressure;Samples;Min_cycle;Max_cycle;Signal;HPM_P1;HPM_P2
2023/01/08 00:01:25;;;;;;;0.50;0.10;;;10.50;99.90;;;;;;4822835;29;20453;-71
2023/01/08 00:03:53;;;;;;;1.10;0.47;;;10.50;99.90;;;;;;4823175;29;21001;-71
2023/01/08 00:06:21;;;;;;;0.50;0.10;;;10.50;99.90;;;;;;4822751;29;20988;-69
2023/01/08 00:08:49;;;;;;;0.50;0.10;;;10.50;99.90;;;;;;4833747;29;20459;-69
2023/01/08 00:11:17;;;;;;;0.50;0.10;;;10.50;99.90;;;;;;4828321;29;20533;-71
2023/01/08 00:13:46;;;;;;;0.50;0.10;;;10.50;99.90;;;;;;4826834;29;20547;-71
2023/01/08 00:16:17;;;;;;;0.50;0.10;;;10.50;99.90;;;;;;4826306;29;20504;-70
2023/01/08 00:18:46;;;;;;;0.50;0.10;;;10.50;99.90;;;;;;4826568;29;20505;-71
2023/01/08 00:21:14;;;;;;;0.50;0.10;;;10.50;99.90;;;;;;4826229;29;20807;-71
2023/01/08 00:23:42;;;;;;;0.57;0.37;;;10.50;99.90;;;;;;4825840;29;20465;-72
2023/01/08 00:26:10;;;;;;;0.50;0.20;;;;;;;;;;4825804;29;20972;-71
2023/01/08 00:28:39;;;;;;;0.50;0.10;;;10.50;99.90;;;;;;4826421;29;20461;-72
2023/01/08 00:31:09;;;;;;;0.50;0.10;;;10.50;99.90;;;;;;4825841;29;20457;-71
2023/01/08 00:33:38;;;;;;;0.50;0.10;;;10.60;99.90;;;;;;4825986;29;20457;-71
2023/01/08 00:36:07;;;;;;;0.50;0.10;;;10.60;99.90;;;;;;4825601;29;20885;-71
2023/01/08 00:38:35;;;;;;;0.70;0.40;;;;;;;;;;4824467;29;20839;-70
2023/01/08 00:41:05;;;;;;;0.50;0.10;;;10.60;99.90;;;;;;4842689;29;20452;-70
2023/01/08 00:43:33;;;;;;;0.50;0.10;;;10.60;99.90;;;;;;4829192;29;20839;-71
2023/01/08 00:46:01;;;;;;;0.50;0.10;;;10.60;99.90;;;;;;4825515;29;20484;-71
2023/01/08 00:48:32;;;;;;;0.50;0.10;;;10.60;99.90;;;;;;4824313;29;20453;-71
2023/01/08 00:51:02;;;;;;;0.60;0.37;;;10.60;99.90;;;;;;4824843;29;20456;-70
2023/01/08 00:53:29;;;;;;;0.50;0.10;;;10.60;99.90;;;;;;4825669;29;20484;-69
2023/01/08 00:56:00;;;;;;;0.50;0.10;;;10.60;99.90;;;;;;4825447;29;20476;-71
2023/01/08 00:58:28;;;;;;;0.50;0.10;;;10.70;99.90;;;;;;4825658;29;20465;-72
2023/01/08 03:37:32;;;;;;;0.50;0.10;;;10.50;99.90;;;;;;5136238;24;20519;-73
2023/01/08 03:40:04;;;;;;;0.50;0.10;;;10.50;99.90;;;;;;4823208;29;20469;-74
2023/01/08 03:42:33;;;;;;;0.50;0.10;;;10.50;1.00;;;;;;4824020;29;20464;-74
2023/01/08 03:45:01;;;;;;;0.50;0.10;;;10.40;1.00;;;;;;4827310;29;20982;-72
2023/01/08 03:47:32;;;;;;;0.50;0.20;;;10.40;1.00;;;;;;4833804;29;20476;-75
2023/01/08 03:50:02;;;;;;;0.50;0.10;;;10.40;1.00;;;;;;4836077;29;20461;-74
2023/01/08 03:52:32;;;;;;;0.50;0.10;;;10.40;1.00;;;;;;4825764;29;20489;-73
2023/01/08 03:55:00;;;;;;;0.50;0.10;;;10.40;1.00;;;;;;4825028;29;20452;-75
2023/01/08 03:57:28;;;;;;;0.50;0.10;;;10.40;1.00;;;;;;4825479;29;20464;-75
2023/01/08 03:59:56;;;;;;;0.50;0.10;;;10.40;1.00;;;;;;4827088;29;20444;-74
2023/01/08 04:02:24;;;;;;;0.50;0.30;;;10.40;1.00;;;;;;4827519;29;20458;-73
2023/01/08 04:04:52;;;;;;;0.50;0.10;;;10.40;1.00;;;;;;4831861;29;20516;-74
2023/01/08 04:07:20;;;;;;;0.50;0.10;;;10.30;1.00;;;;;;4843711;29;20464;-73
2023/01/08 04:09:49;;;;;;;0.50;0.10;;;10.40;1.00;;;;;;4832774;29;20452;-75
2023/01/08 04:12:17;;;;;;;0.50;0.10;;;10.30;1.00;;;;;;4821596;29;20904;-73
2023/01/08 04:14:45;;;;;;;0.50;0.10;;;10.30;1.00;;;;;;4824822;29;20454;-75
2023/01/08 04:17:14;;;;;;;13.00;12.20;;;10.40;1.00;;;;;;4824931;29;20472;-72
2023/01/08 04:19:42;;;;;;;1.03;0.93;;;10.40;1.00;;;;;;4825697;29;20457;-74
2023/01/08 04:22:10;;;;;;;0.50;0.10;;;10.30;1.00;;;;;;4812472;29;20471;-74
2023/01/08 04:24:38;;;;;;;0.50;0.10;;;10.30;1.00;;;;;;4833466;29;20463;-75
2023/01/08 04:27:07;;;;;;;0.50;0.10;;;10.30;1.00;;;;;;4829897;29;20469;-72
2023/01/08 04:29:35;;;;;;;0.50;0.10;;;10.30;1.00;;;;;;4822450;29;20453;-75
2023/01/08 04:32:03;;;;;;;0.50;0.10;;;11.60;1.00;;;;;;4824196;29;20457;-74
2023/01/08 04:34:31;;;;;;;2.10;2.00;;;10.30;1.00;;;;;;4822888;29;20453;-74
2023/01/08 04:36:59;;;;;;;0.50;0.10;;;10.40;1.00;;;;;;4819573;29;20493;-74
2023/01/08 04:39:29;;;;;;;0.50;0.10;;;10.40;1.00;;;;;;4823832;29;21690;-74
2023/01/08 04:41:57;;;;;;;0.50;0.10;;;10.40;1.00;;;;;;4829141;29;20465;-76
2023/01/08 04:44:26;;;;;;;0.50;0.10;;;10.40;1.00;;;;;;4830441;29;20979;-73
2023/01/08 04:46:54;;;;;;;0.50;0.10;;;10.40;1.00;;;;;;4822009;29;20475;-74
2023/01/08 04:49:22;;;;;;;0.50;0.10;;;10.40;1.00;;;;;;4830641;29;20556;-74
2023/01/08 04:51:50;;;;;;;0.50;0.10;;;10.40;1.00;;;;;;4840280;29;20457;-73
2023/01/08 04:54:18;;;;;;;0.50;0.10;;;10.40;1.00;;;;;;4826344;29;20485;-73
2023/01/08 04:56:46;;;;;;;0.50;0.10;;;10.40;1.00;;;;;;4826205;29;20990;-73
2023/01/08 04:59:14;;;;;;;0.50;0.20;;;10.40;1.00;;;;;;4834122;29;20465;-74
2023/01/08 05:01:43;;;;;;;0.50;0.10;;;10.40;1.00;;;;;;4829082;29;20455;-74
2023/01/08 05:04:11;;;;;;;0.50;0.10;;;10.50;1.00;;;;;;4840202;23;20577;-69
2023/01/08 05:06:39;;;;;;;0.50;0.10;;;10.50;1.00;;;;;;4817375;29;20450;-70
2023/01/08 05:09:07;;;;;;;0.50;0.10;;;10.50;1.00;;;;;;4814658;29;20481;-69
2023/01/08 05:11:36;;;;;;;0.50;0.10;;;10.50;1.00;;;;;;4806297;29;20458;-69
2023/01/08 05:14:04;;;;;;;0.50;0.10;;;10.50;1.00;;;;;;4807889;29;20574;-69
2023/01/08 05:16:32;;;;;;;0.50;0.10;;;10.50;1.00;;;;;;4808408;29;20457;-68
2023/01/08 05:19:01;;;;;;;0.50;0.10;;;10.50;1.00;;;;;;4808589;29;20985;-70
2023/01/08 05:21:29;;;;;;;0.50;0.10;;;10.50;1.00;;;;;;4807020;29;20857;-70
2023/01/08 05:23:57;;;;;;;0.50;0.10;;;10.50;1.00;;;;;;4809275;29;20493;-70
2023/01/08 05:26:24;;;;;;;0.50;0.10;;;10.50;1.00;;;;;;4813670;29;20458;-69
2023/01/08 05:28:52;;;;;;;0.50;0.20;;;10.50;1.00;;;;;;4808772;29;21029;-70
2023/01/08 05:31:20;;;;;;;0.50;0.10;;;10.50;1.00;;;;;;4811148;29;20458;-70
2023/01/08 05:33:48;;;;;;;0.50;0.10;;;10.50;1.00;;;;;;4806800;29;20521;-69
2023/01/08 05:36:17;;;;;;;0.50;0.10;;;10.50;1.00;;;;;;4809377;29;20457;-68
2023/01/08 05:38:45;;;;;;;0.50;0.10;;;10.50;1.00;;;;;;4822993;29;20450;-70
2023/01/08 05:41:13;;;;;;;0.50;0.10;;;10.50;1.00;;;;;;4809295;29;20454;-68
2023/01/08 05:43:41;;;;;;;0.50;0.10;;;10.40;1.00;;;;;;4822023;29;20465;-70
2023/01/08 05:46:08;;;;;;;1.10;0.40;;;10.40;1.00;;;;;;4822884;29;20457;-68
2023/01/08 05:48:37;;;;;;;1.70;1.60;;;10.40;1.00;;;;;;4824517;29;20460;-69
2023/01/08 05:51:05;;;;;;;0.50;0.10;;;10.30;1.00;;;;;;4816149;29;20470;-70
2023/01/08 05:53:34;;;;;;;0.50;0.10;;;10.30;1.00;;;;;;4817675;29;20497;-68
2023/01/08 05:56:04;;;;;;;0.50;0.10;;;10.30;1.00;;;;;;4818709;29;20453;-69
2023/01/08 05:58:35;;;;;;;0.60;0.30;;;10.30;1.00;;;;;;4821489;29;20533;-69
2023/01/08 06:01:05;;;;;;;0.50;0.10;;;10.30;1.00;;;;;;4805353;29;20461;-69
2023/01/08 06:03:32;;;;;;;0.50;0.20;;;10.30;1.00;;;;;;4817469;29;20997;-69
2023/01/08 06:06:01;;;;;;;0.50;0.10;;;10.30;1.00;;;;;;4824212;29;20461;-69
2023/01/08 06:08:29;;;;;;;0.50;0.10;;;10.20;1.00;;;;;;4814413;29;20469;-68
2023/01/08 06:11:01;;;;;;;0.50;0.20;;;10.20;1.00;;;;;;4806733;29;20853;-67
2023/01/08 06:13:30;;;;;;;0.50;0.20;;;10.10;1.00;;;;;;4808082;29;20482;-68
2023/01/08 06:15:59;;;;;;;0.50;0.10;;;10.10;1.00;;;;;;4809399;29;20483;-68
2023/01/08 06:18:27;;;;;;;1.07;0.73;;;10.10;1.00;;;;;;4803524;29;20476;-66
2023/01/08 06:20:55;;;;;;;0.50;0.10;;;10.10;1.00;;;;;;4808447;29;20457;-68
2023/01/08 06:23:22;;;;;;;0.50;0.10;;;9.50;1.00;;;;;;4809108;29;20476;-68
2023/01/08 06:25:53;;;;;;;0.50;0.10;;;10.10;1.00;;;;;;4821438;29;20457;-68
2023/01/08 06:28:22;;;;;;;0.50;0.20;;;10.10;1.00;;;;;;4822962;29;20450;-68
2023/01/08 06:30:50;;;;;;;0.50;0.10;;;10.10;1.00;;;;;;4813656;29;20465;-69
2023/01/08 06:33:19;;;;;;;0.50;0.10;;;10.00;1.00;;;;;;4819796;29;20499;-67
2023/01/08 06:35:48;;;;;;;0.50;0.10;;;10.00;1.00;;;;;;4824070;29;20503;-68
2023/01/08 06:38:17;;;;;;;1.40;1.30;;;10.00;1.00;;;;;;4814747;29;20466;-69
2023/01/08 06:40:45;;;;;;;0.50;0.10;;;10.10;1.00;;;;;;4810660;29;20470;-70
2023/01/08 06:43:13;;;;;;;5.93;0.73;;;10.10;1.00;;;;;;4805829;29;20474;-69
2023/01/08 06:45:42;;;;;;;0.50;0.10;;;10.10;1.00;;;;;;4808116;29;20828;-69
2023/01/08 06:48:10;;;;;;;0.50;0.10;;;10.00;1.00;;;;;;4804752;29;20450;-70
2023/01/08 06:50:38;;;;;;;0.50;0.10;;;10.10;1.00;;;;;;4807885;29;20553;-69
2023/01/08 06:53:06;;;;;;;0.50;0.20;;;10.00;1.00;;;;;;4815326;29;20481;-69
2023/01/08 06:55:34;;;;;;;0.50;0.20;;;10.00;1.00;;;;;;4818168;29;20438;-70
2023/01/08 06:58:01;;;;;;;0.50;0.10;;;10.10;1.00;;;;;;4812781;29;20469;-69
2023/01/08 07:00:29;;;;;;;0.50;0.10;;;10.10;1.00;;;;;;4822834;29;20510;-69
2023/01/08 07:03:00;;;;;;;0.50;0.10;;;10.10;1.00;;;;;;4822909;29;20477;-68
2023/01/08 07:05:29;;;;;;;0.50;0.10;;;10.10;1.00;;;;;;4799075;29;20937;-70
2023/01/08 07:07:57;;;;;;;0.50;0.10;;;10.10;1.00;;;;;;4818707;29;20826;-70
2023/01/08 07:10:25;;;;;;;0.50;0.10;;;10.10;1.00;;;;;;4818840;29;20871;-69
2023/01/08 07:12:53;;;;;;;0.50;0.10;;;10.10;1.00;;;;;;4808827;29;20466;-70
2023/01/08 07:15:21;;;;;;;0.50;0.10;;;10.10;1.00;;;;;;4814131;29;20500;-70
2023/01/08 07:17:48;;;;;;;0.50;0.10;;;10.10;1.00;;;;;;4819589;29;20462;-70
2023/01/08 07:20:18;;;;;;;0.50;0.10;;;10.10;1.00;;;;;;4815779;29;20468;-70
2023/01/08 07:22:46;;;;;;;0.50;0.10;;;10.10;1.00;;;;;;4822104;29;20972;-69
2023/01/08 07:25:13;;;;;;;0.50;0.10;;;10.10;1.00;;;;;;4822194;29;20450;-69
2023/01/08 07:27:41;;;;;;;0.50;0.10;;;10.10;1.00;;;;;;4822708;29;20855;-72
2023/01/08 07:30:10;;;;;;;0.70;0.70;;;10.10;1.00;;;;;;4813768;29;20457;-73
2023/01/08 07:32:58;;;;;;;0.50;0.10;;;10.00;1.00;;;;;;4812762;29;20489;-73
2023/01/08 07:35:28;;;;;;;0.50;0.10;;;10.00;1.00;;;;;;4813777;29;21127;-70
2023/01/08 07:37:56;;;;;;;0.50;0.10;;;10.00;1.00;;;;;;4815399;29;20465;-68
2023/01/08 07:40:25;;;;;;;0.50;0.10;;;10.00;1.00;;;;;;4822515;29;20526;-69
2023/01/08 07:43:00;;;;;;;0.50;0.27;;;10.00;1.00;;;;;;4809562;29;21048;-69
2023/01/08 07:45:28;;;;;;;0.50;0.10;;;10.00;1.00;;;;;;4801573;29;20469;-69
2023/01/08 07:47:57;;;;;;;0.50;0.20;;;10.00;1.00;;;;;;4803810;29;20450;-69
2023/01/08 07:50:25;;;;;;;0.50;0.10;;;10.00;1.00;;;;;;4804821;29;20454;-71
2023/01/08 07:52:57;;;;;;;0.50;0.10;;;10.00;1.00;;;;;;4822533;29;20867;-71
2023/01/08 07:55:25;;;;;;;0.50;0.10;;;10.00;1.00;;;;;;4817670;29;20486;-69
2023/01/08 07:57:52;;;;;;;0.50;0.10;;;10.00;1.00;;;;;;4815779;29;20510;-69
2023/01/08 08:00:21;;;;;;;0.50;0.20;;;10.10;1.00;;;;;;4822169;29;20461;-69
2023/01/08 08:02:48;;;;;;;0.50;0.10;;;10.10;1.00;;;;;;4810918;29;20473;-69
2023/01/08 08:05:17;;;;;;;0.50;0.20;;;10.10;1.00;;;;;;4815252;29;20473;-71
2023/01/08 08:07:45;;;;;;;0.50;0.10;;;10.00;1.00;;;;;;4813092;29;20458;-69
2023/01/08 08:10:14;;;;;;;0.50;0.10;;;10.00;1.00;;;;;;4803305;29;20462;-68
2023/01/08 08:12:44;;;;;;;0.70;0.50;;;10.10;1.00;;;;;;4806399;29;20946;-69
2023/01/08 08:15:12;;;;;;;0.50;0.10;;;10.10;1.00;;;;;;4804263;29;20512;-68
2023/01/08 08:17:43;;;;;;;0.50;0.10;;;10.10;1.00;;;;;;4805746;29;20557;-70
2023/01/08 08:20:12;;;;;;;0.50;0.10;;;10.10;1.00;;;;;;4808370;29;20465;-67
2023/01/08 08:22:39;;;;;;;0.50;0.10;;;10.10;1.00;;;;;;4805303;29;20465;-70
2023/01/08 08:25:08;;;;;;;0.50;0.10;;;10.10;1.00;;;;;;4815208;29;20506;-67
2023/01/08 08:27:37;;;;;;;0.50;0.10;;;10.10;1.00;;;;;;4805424;29;20447;-69
2023/01/08 08:30:06;;;;;;;0.50;0.10;;;10.10;1.00;;;;;;4806498;29;20462;-70
2023/01/08 08:32:34;;;;;;;0.50;0.10;;;10.10;1.00;;;;;;4810105;29;20470;-70
2023/01/08 08:35:03;;;;;;;0.50;0.10;;;10.10;1.00;;;;;;4810222;29;20517;-70
2023/01/08 08:37:31;;;;;;;0.50;0.10;;;10.10;1.00;;;;;;4810795;29;20477;-70
2023/01/08 08:39:59;;;;;;;0.50;0.10;;;10.10;1.00;;;;;;4810587;29;20457;-70
2023/01/08 08:42:26;;;;;;;0.50;0.10;;;10.10;1.00;;;;;;4807513;29;20489;-70
2023/01/08 08:44:56;;;;;;;0.50;0.10;;;10.10;1.00;;;;;;4805194;29;20461;-70
2023/01/08 08:47:24;;;;;;;1.77;1.67;;;10.10;1.00;;;;;;4808917;29;20977;-70
2023/01/08 08:49:52;;;;;;;0.50;0.10;;;10.10;1.00;;;;;;4808291;29;20454;-69
2023/01/08 08:52:20;;;;;;;0.50;0.10;;;10.00;1.00;;;;;;4812011;29;20533;-70
2023/01/08 08:54:47;;;;;;;0.50;0.10;;;10.00;1.00;;;;;;4811644;29;20627;-71
2023/01/08 08:57:16;;;;;;;0.50;0.10;;;10.00;1.00;;;;;;4810479;29;20454;-70
2023/01/08 08:59:43;;;;;;;0.50;0.10;;;10.00;1.00;;;;;;4812269;29;20458;-74
2023/01/08 09:02:13;;;;;;;0.50;0.10;;;10.00;1.00;;;;;;4812674;29;20458;-72
2023/01/08 09:04:41;;;;;;;0.50;0.10;;;10.00;1.00;;;;;;4816258;29;20478;-70
2023/01/08 09:07:08;;;;;;;0.50;0.20;;;10.00;1.00;;;;;;4814819;29;20453;-68
2023/01/08 09:09:36;;;;;;;0.50;0.10;;;10.00;1.00;;;;;;4822027;29;20453;-69
2023/01/08 09:12:06;;;;;;;0.50;0.10;;;10.00;1.00;;;;;;4825388;29;20826;-70
2023/01/08 09:14:34;;;;;;;0.50;0.10;;;10.00;1.00;;;;;;4812466;29;20482;-70
2023/01/08 09:17:01;;;;;;;0.50;0.10;;;10.00;1.00;;;;;;4824633;29;20449;-69
2023/01/08 09:19:31;;;;;;;0.50;0.20;;;10.00;1.00;;;;;;4818954;29;20453;-69
2023/01/08 09:21:59;;;;;;;0.50;0.10;;;10.00;1.00;;;;;;4819860;29;20476;-69
2023/01/08 09:24:26;;;;;;;0.50;0.10;;;10.00;1.00;;;;;;4812203;29;20497;-68
2023/01/08 09:26:54;;;;;;;0.50;0.10;;;10.00;1.00;;;;;;4824256;29;20450;-69
2023/01/08 09:29:22;;;;;;;0.50;0.10;;;10.00;1.00;;;;;;4812320;29;20822;-70
2023/01/08 09:31:50;;;;;;;0.50;0.10;;;10.00;1.00;;;;;;4822731;29;21139;-69
2023/01/08 09:34:18;;;;;;;0.50;0.10;;;10.00;1.00;;;;;;4822662;29;20476;-69
2023/01/08 09:36:48;;;;;;;0.50;0.17;;;10.00;1.00;;;;;;4815108;29;20498;-69
2023/01/08 09:39:15;;;;;;;0.50;0.10;;;10.00;1.00;;;;;;4820883;29;20797;-69
2023/01/08 09:41:45;;;;;;;0.50;0.10;;;10.00;1.00;;;;;;4822898;29;20506;-71
2023/01/08 09:44:16;;;;;;;0.50;0.10;;;;;;;;;;4823818;29;20473;-68
2023/01/08 09:46:45;;;;;;;0.60;0.40;;;10.10;1.00;;;;;;4824199;29;20471;-70
2023/01/08 09:49:16;;;;;;;0.60;0.50;;;10.10;1.00;;;;;;4814516;29;20514;-71
2023/01/08 09:51:44;;;;;;;0.50;0.10;;;10.00;1.00;;;;;;4807194;29;20446;-71
2023/01/08 09:54:16;;;;;;;0.50;0.10;;;10.10;1.00;;;;;;4824057;29;20854;-70
2023/01/08 09:56:44;;;;;;;0.77;0.40;;;10.10;1.00;;;;;;4814275;29;20490;-71
2023/01/08 09:59:16;;;;;;;0.50;0.10;;;10.10;1.00;;;;;;4819027;29;20457;-70
2023/01/08 10:01:45;;;;;;;0.50;0.10;;;10.20;1.00;;;;;;4812485;29;20460;-72
2023/01/08 10:04:16;;;;;;;2.30;2.20;;;10.10;1.00;;;;;;4819316;29;20488;-73
2023/01/08 10:06:50;;;;;;;0.50;0.20;;;10.10;1.00;;;;;;4823798;29;21022;-73
2023/01/08 10:09:27;;;;;;;0.50;0.10;;;10.10;1.00;;;;;;4806102;29;20450;-72
2023/01/08 10:11:59;;;;;;;0.50;0.10;;;10.10;1.00;;;;;;4810376;29;20496;-73
2023/01/08 10:14:30;;;;;;;0.50;0.10;;;10.20;1.00;;;;;;4809862;29;21476;-69
2023/01/08 10:17:02;;;;;;;0.50;0.20;;;10.20;1.00;;;;;;4804093;29;21049;-71
2023/01/08 10:19:38;;;;;;;0.50;0.10;;;10.20;1.00;;;;;;4808665;29;20977;-70
2023/01/08 10:22:12;;;;;;;0.50;0.10;;;10.20;1.00;;;;;;4805281;29;20484;-69
2023/01/08 10:24:42;;;;;;;0.97;0.87;;;10.20;1.00;;;;;;4806379;29;20482;-73
2023/01/08 10:27:13;;;;;;;0.50;0.20;;;10.20;1.00;;;;;;4808406;29;20458;-70
2023/01/08 10:29:42;;;;;;;0.50;0.10;;;10.30;1.00;;;;;;4810048;29;20914;-72
2023/01/08 10:32:15;;;;;;;0.50;0.10;;;10.30;1.00;;;;;;4824344;29;20954;-71
2023/01/08 10:34:45;;;;;;;2.47;2.37;;;10.30;1.00;;;;;;4827792;29;21074;-71
2023/01/08 10:37:25;;;;;;;0.50;0.10;;;10.30;1.00;;;;;;4817747;29;20497;-73
2023/01/08 10:40:03;;;;;;;0.50;0.10;;;10.30;1.00;;;;;;4816532;29;20848;-71
2023/01/08 10:42:35;;;;;;;0.50;0.10;;;10.40;1.00;;;;;;4823590;29;20460;-72
2023/01/08 10:45:07;;;;;;;0.50;0.10;;;10.40;1.00;;;;;;4823840;29;20788;-71
2023/01/08 10:47:37;;;;;;;0.50;0.10;;;10.40;1.00;;;;;;4813807;29;20466;-70
2023/01/08 10:50:15;;;;;;;0.50;0.10;;;10.50;1.00;;;;;;4806587;29;20457;-73
2023/01/08 10:52:52;;;;;;;0.50;0.10;;;10.60;1.00;;;;;;4812232;29;20548;-73
2023/01/08 10:55:27;;;;;;;0.50;0.17;;;10.60;1.00;;;;;;4802914;29;20458;-72
2023/01/08 10:57:56;;;;;;;0.50;0.10;;;10.60;1.00;;;;;;4823382;29;20486;-72
2023/01/08 11:00:27;;;;;;;0.50;0.10;;;10.60;1.00;;;;;;4823268;29;20537;-72
2023/01/08 11:02:58;;;;;;;0.50;0.10;;;10.70;1.00;;;;;;4818721;29;20508;-72
2023/01/08 11:05:32;;;;;;;0.50;0.10;;;10.70;1.00;;;;;;4814157;29;20795;-73
2023/01/08 11:08:04;;;;;;;0.50;0.10;;;10.80;1.00;;;;;;4810454;29;20454;-72
2023/01/08 11:10:36;;;;;;;0.50;0.10;;;10.90;1.00;;;;;;4838878;24;20446;-73
2023/01/08 11:13:07;;;;;;;0.50;0.10;;;10.90;1.00;;;;;;4807867;29;20854;-73
2023/01/08 11:15:38;;;;;;;0.50;0.10;;;12.60;1.00;;;;;;4806222;29;20463;-74
2023/01/08 11:18:18;;;;;;;0.50;0.10;;;10.90;1.00;;;;;;4818964;29;20896;-75
2023/01/08 11:20:47;;;;;;;0.50;0.10;;;11.00;1.00;;;;;;4822614;29;20480;-74
2023/01/08 11:23:19;;;;;;;0.50;0.10;;;11.00;1.00;;;;;;4807582;29;21151;-74
2023/01/08 11:25:59;;;;;;;0.50;0.10;;;11.20;1.00;;;;;;4808701;29;20476;-72
2023/01/08 11:28:36;;;;;;;6.73;3.50;;;11.30;1.00;;;;;;4796597;29;20458;-74
2023/01/08 11:31:13;;;;;;;0.50;0.10;;;11.40;1.00;;;;;;4802832;29;20474;-73
2023/01/08 11:33:47;;;;;;;0.50;0.10;;;11.50;1.00;;;;;;4799832;29;20506;-74
2023/01/08 11:36:23;;;;;;;0.50;0.10;;;11.50;1.00;;;;;;4803331;29;20928;-73
2023/01/08 11:38:51;;;;;;;0.73;0.73;;;11.60;1.00;;;;;;4801064;29;20838;-75
2023/01/08 11:41:39;;;;;;;0.50;0.10;;;11.60;1.00;;;;;;4807403;29;20993;-74
2023/01/08 11:44:22;;;;;;;0.50;0.10;;;11.60;1.00;;;;;;4788496;29;20480;-74
2023/01/08 11:47:00;;;;;;;0.50;0.10;;;11.60;1.00;;;;;;4815557;29;20981;-73
2023/01/08 11:49:55;;;;;;;0.50;0.10;;;11.60;1.00;;;;;;4814645;29;20532;-75
2023/01/08 11:52:34;;;;;;;0.50;0.30;;;11.60;1.00;;;;;;4799712;29;21029;-73
2023/01/08 11:55:15;;;;;;;0.50;0.10;;;11.60;1.00;;;;;;4808062;29;20462;-73
2023/01/08 11:57:58;;;;;;;0.50;0.10;;;11.50;1.00;;;;;;4809592;29;20529;-74
2023/01/08 12:00:38;;;;;;;0.50;0.10;;;11.60;1.00;;;;;;4807701;29;20950;-74
2023/01/08 12:03:16;;;;;;;0.50;0.10;;;11.50;1.00;;;;;;4798504;29;20470;-74
2023/01/08 12:05:48;;;;;;;0.50;0.10;;;11.60;1.00;;;;;;4810839;29;20456;-73
2023/01/08 12:08:27;;;;;;;0.50;0.10;;;11.50;1.00;;;;;;4812207;29;20461;-74
2023/01/08 12:11:03;;;;;;;0.50;0.20;;;11.50;1.00;;;;;;4810370;29;20624;-74
2023/01/08 12:13:57;;;;;;;0.50;0.10;;;11.60;1.00;;;;;;4801722;29;21023;-75
2023/01/08 12:16:47;;;;;;;0.60;0.30;;;11.50;1.00;;;;;;4789208;30;20494;-76
2023/01/08 12:19:27;;;;;;;0.50;0.10;;;11.60;1.00;;;;;;4806367;29;20466;-74
2023/01/08 12:22:16;;;;;;;0.50;0.10;;;11.60;1.00;;;;;;4795060;29;20483;-74
2023/01/08 12:25:17;;;;;;;0.50;0.10;;;11.60;1.00;;;;;;4793737;30;20455;-74
2023/01/08 12:27:51;;;;;;;0.50;0.10;;;11.60;1.00;;;;;;4797782;29;20462;-74
2023/01/08 12:30:36;;;;;;;0.50;0.10;;;11.60;1.00;;;;;;4794769;29;20474;-74
2023/01/08 12:33:08;;;;;;;0.50;0.10;;;11.70;1.00;;;;;;4794052;30;20461;-73
2023/01/08 12:35:39;;;;;;;0.67;0.67;;;11.60;99.90;;;;;;4793266;29;20458;-72
2023/01/08 12:38:13;;;;;;;0.50;0.10;;;11.60;99.90;;;;;;4793035;30;20490;-73
2023/01/08 12:40:44;;;;;;;0.50;0.10;;;11.50;99.90;;;;;;4792535;29;20476;-74
2023/01/08 12:43:18;;;;;;;0.50;0.10;;;11.50;99.90;;;;;;4792174;30;20447;-72
2023/01/08 12:45:53;;;;;;;0.50;0.10;;;11.50;99.90;;;;;;4791744;29;20467;-74
2023/01/08 12:48:24;;;;;;;0.50;0.10;;;11.50;99.90;;;;;;4791761;30;20466;-74
2023/01/08 12:51:17;;;;;;;0.50;0.10;;;11.50;99.90;;;;;;4792762;29;20598;-75
2023/01/08 12:53:55;;;;;;;0.50;0.10;;;11.50;99.90;;;;;;4797839;29;20475;-72
2023/01/08 12:56:30;;;;;;;0.50;0.10;;;11.60;99.90;;;;;;4794969;29;20474;-74
2023/01/08 12:59:23;;;;;;;0.60;0.53;;;11.60;99.90;;;;;;4797158;29;20438;-73
2023/01/08 13:02:03;;;;;;;0.50;0.10;;;11.70;99.90;;;;;;4796766;29;20524;-73
2023/01/08 13:04:42;;;;;;;0.50;0.10;;;11.70;99.90;;;;;;4793918;29;20481;-73
2023/01/08 13:07:18;;;;;;;0.50;0.10;;;11.70;99.90;;;;;;4806511;29;20549;-74
2023/01/08 13:09:58;;;;;;;0.50;0.10;;;11.70;99.90;;;;;;4803853;29;20949;-75
2023/01/08 13:12:34;;;;;;;0.50;0.10;;;11.70;99.90;;;;;;4809608;29;21012;-75
2023/01/08 13:15:02;;;;;;;0.50;0.10;;;11.70;99.90;;;;;;4808098;29;20460;-75
2023/01/08 13:17:37;;;;;;;0.50;0.17;;;11.70;99.90;;;;;;4807591;29;20490;-74
2023/01/08 13:20:11;;;;;;;0.50;0.10;;;11.70;99.90;;;;;;4810177;29;20450;-70
2023/01/08 13:22:53;;;;;;;0.50;0.10;;;;;;;;;;4809696;29;20476;-70
2023/01/08 13:25:37;;;;;;;0.50;0.10;;;11.50;99.90;;;;;;4809279;29;21233;-72
2023/01/08 13:28:26;;;;;;;1.40;1.40;;;11.50;99.90;;;;;;4800084;29;20446;-73
2023/01/08 13:31:12;;;;;;;0.50;0.10;;;11.50;99.90;;;;;;4791960;29;20482;-71
2023/01/08 13:33:42;;;;;;;0.50;0.10;;;11.50;99.90;;;;;;4797720;29;20454;-71
2023/01/08 13:36:23;;;;;;;0.50;0.10;;;11.50;99.90;;;;;;4800423;29;20531;-73
2023/01/08 13:39:03;;;;;;;0.50;0.10;;;11.50;99.90;;;;;;4798494;29;20984;-71
2023/01/08 13:41:32;;;;;;;0.50;0.10;;;11.40;99.90;;;;;;4800635;29;20487;-75
2023/01/08 13:44:04;;;;;;;0.50;0.10;;;11.40;99.90;;;;;;4805416;29;20451;-75
2023/01/08 13:46:36;;;;;;;0.50;0.10;;;11.40;99.90;;;;;;4809054;29;20467;-74
2023/01/08 13:49:07;;;;;;;0.97;0.97;;;11.40;99.90;;;;;;4802678;29;20463;-74
2023/01/08 13:51:43;;;;;;;0.50;0.10;;;11.40;99.90;;;;;;4803242;29;20551;-75
2023/01/08 13:54:31;;;;;;;0.60;0.43;;;11.40;99.90;;;;;;4799376;29;20466;-74
2023/01/08 13:57:05;;;;;;;0.60;0.40;;;11.40;99.90;;;;;;4805622;29;20454;-74
2023/01/08 13:59:41;;;;;;;0.50;0.10;;;11.40;99.90;;;;;;4812344;29;20449;-75
2023/01/08 14:02:30;;;;;;;0.50;0.10;;;11.40;99.90;;;;;;4798476;29;20483;-73
2023/01/08 14:05:01;;;;;;;0.50;0.10;;;11.30;99.90;;;;;;4798134;29;20471;-75
2023/01/08 14:07:29;;;;;;;0.50;0.10;;;11.30;99.90;;;;;;4807006;29;20482;-72
2023/01/08 14:10:07;;;;;;;0.50;0.10;;;11.30;99.90;;;;;;4811676;29;20466;-76
2023/01/08 14:12:35;;;;;;;0.50;0.10;;;11.30;99.90;;;;;;4802433;29;20621;-73
2023/01/08 14:15:08;;;;;;;0.50;0.10;;;11.30;99.90;;;;;;4808431;29;20580;-75
2023/01/08 14:17:36;;;;;;;0.50;0.10;;;11.30;99.90;;;;;;4806383;29;20521;-74
2023/01/08 14:20:11;;;;;;;0.50;0.10;;;11.30;99.90;;;;;;4808210;29;20446;-73
2023/01/08 14:22:42;;;;;;;0.50;0.10;;;11.40;99.90;;;;;;4808844;29;20505;-72
2023/01/08 14:25:16;;;;;;;0.50;0.10;;;11.30;99.90;;;;;;4798774;29;20466;-74
2023/01/08 14:27:54;;;;;;;0.50;0.30;;;11.40;99.90;;;;;;4805015;29;20957;-73
2023/01/08 14:30:23;;;;;;;0.50;0.10;;;11.40;99.90;;;;;;4797500;29;20457;-74
2023/01/08 14:32:51;;;;;;;0.50;0.10;;;11.50;99.90;;;;;;4804288;29;20463;-75
2023/01/08 14:35:30;;;;;;;0.50;0.30;;;11.50;99.90;;;;;;4809271;29;20465;-76
2023/01/08 14:37:59;;;;;;;0.50;0.10;;;11.50;99.90;;;;;;4798696;29;20490;-75
2023/01/08 14:40:33;;;;;;;0.50;0.10;;;11.50;99.90;;;;;;4803292;29;21148;-75
2023/01/08 14:43:09;;;;;;;0.50;0.10;;;11.50;99.90;;;;;;4806593;29;20554;-75
2023/01/08 14:45:39;;;;;;;0.50;0.10;;;11.50;99.90;;;;;;4794115;29;20459;-77
2023/01/08 14:48:16;;;;;;;0.50;0.10;;;11.50;99.90;;;;;;4796816;29;20491;-72
2023/01/08 14:50:59;;;;;;;0.50;0.10;;;11.60;99.90;;;;;;4793661;29;20505;-73
2023/01/08 14:53:31;;;;;;;0.50;0.10;;;11.60;99.90;;;;;;4790549;29;20451;-75
2023/01/08 14:56:00;;;;;;;0.50;0.10;;;11.60;99.90;;;;;;4799913;29;20474;-75
2023/01/08 14:58:33;;;;;;;0.50;0.10;;;11.60;99.90;;;;;;4799458;29;20493;-75
2023/01/08 15:01:06;;;;;;;0.50;0.10;;;11.50;99.90;;;;;;4800609;29;20490;-73
2023/01/08 15:03:35;;;;;;;0.50;0.10;;;12.00;99.90;;;;;;4811406;29;20450;-72
2023/01/08 15:06:06;;;;;;;0.50;0.10;;;11.60;99.90;;;;;;4798325;29;20451;-75
2023/01/08 15:08:39;;;;;;;0.50;0.10;;;11.50;99.90;;;;;;4800026;29;21037;-79
2023/01/08 15:11:25;;;;;;;0.50;0.10;;;11.50;99.90;;;;;;4808235;29;20494;-72
2023/01/08 15:13:56;;;;;;;0.50;0.10;;;;;;;;;;4808220;29;20458;-70
2023/01/08 15:16:29;;;;;;;0.50;0.10;;;11.40;99.90;;;;;;4808716;29;20446;-73
2023/01/08 15:19:03;;;;;;;0.50;0.10;;;11.40;99.90;;;;;;4803788;29;20515;-73
2023/01/08 15:21:34;;;;;;;0.50;0.10;;;11.40;99.90;;;;;;4802579;29;20496;-72
2023/01/08 15:24:03;;;;;;;0.50;0.10;;;11.40;99.90;;;;;;4792046;29;20457;-72
2023/01/08 15:26:31;;;;;;;0.50;0.10;;;11.30;99.90;;;;;;4807549;29;20461;-71
2023/01/08 15:29:01;;;;;;;0.50;0.10;;;11.30;99.90;;;;;;4812818;29;20475;-72
2023/01/08 15:31:44;;;;;;;0.50;0.10;;;11.20;99.90;;;;;;4796447;29;20483;-72
2023/01/08 15:34:12;;;;;;;0.50;0.10;;;11.20;99.90;;;;;;4809687;29;20573;-72
2023/01/08 15:36:41;;;;;;;0.50;0.10;;;11.10;99.90;;;;;;4804394;29;20454;-72
2023/01/08 15:39:09;;;;;;;0.60;0.40;;;11.10;99.90;;;;;;4790121;29;20491;-72
2023/01/08 15:44:25;;;;;;;0.50;0.10;;;11.00;99.90;;;;;;4793285;29;20466;-73
2023/01/08 15:46:53;;;;;;;0.50;0.10;;;;;;;;;;4794355;29;20515;-72
2023/01/08 15:49:21;;;;;;;0.50;0.10;;;11.00;99.90;;;;;;4805927;29;20442;-71
2023/01/08 15:51:52;;;;;;;0.50;0.10;;;10.90;1.00;;;;;;4806025;29;20469;-74
2023/01/08 15:54:23;;;;;;;0.50;0.10;;;10.90;1.00;;;;;;4808164;29;20462;-72
2023/01/08 15:56:51;;;;;;;0.50;0.10;;;10.90;1.00;;;;;;4795274;29;20506;-72